sensor_id;sensor_type;location;lat;lon;timestamp;pressure;altitude;pressure_sealevel;temperature;humidity
50636;BME280;36598;46.054;11.130;2023-03-21T00:00:55;99527.56;;;11.24;64.31
50636;BME280;36598;46.054;11.130;2023-03-21T00:03:21;99523.63;;;11.22;63.99
50636;BME280;36598;46.054;11.130;2023-03-21T00:05:46;99530.03;;;11.15;64.22
50636;BME280;36598;46.054;11.130;2023-03-21T00:08:13;99526.16;;;11.06;64.41
50636;BME280;36598;46.054;11.130;2023-03-21T00:10:38;99525.31;;;11.12;64.17
50636;BME280;36598;46.054;11.130;2023-03-21T00:13:04;99522.28;;;10.96;64.54
50636;BME280;36598;46.054;11.130;2023-03-21T00:15:29;99517.00;;;11.12;64.02
50636;BME280;36598;46.054;11.130;2023-03-21T00:17:55;99514.41;;;10.94;64.32
50636;BME280;36598;46.054;11.130;2023-03-21T00:20:30;99521.97;;;10.87;64.77
50636;BME280;36598;46.054;11.130;2023-03-21T00:22:58;99518.09;;;10.81;64.91
50636;BME280;36598;46.054;11.130;2023-03-21T00:25:23;99514.91;;;10.78;65.13
50636;BME280;36598;46.054;11.130;2023-03-21T00:27:49;99512.53;;;10.84;64.97
50636;BME280;36598;46.054;11.130;2023-03-21T00:30:14;99516.06;;;10.85;64.67
50636;BME280;36598;46.054;11.130;2023-03-21T00:32:40;99516.09;;;10.81;64.99
50636;BME280;36598;46.054;11.130;2023-03-21T00:35:06;99509.94;;;11.04;63.64
50636;BME280;36598;46.054;11.130;2023-03-21T00:37:31;99514.56;;;10.76;64.41
50636;BME280;36598;46.054;11.130;2023-03-21T00:39:56;99501.88;;;10.79;64.32
50636;BME280;36598;46.054;11.130;2023-03-21T00:42:21;99500.72;;;10.76;64.22
50636;BME280;36598;46.054;11.130;2023-03-21T00:44:47;99498.91;;;10.56;65.36
50636;BME280;36598;46.054;11.130;2023-03-21T00:47:12;99501.94;;;10.72;64.30
50636;BME280;36598;46.054;11.130;2023-03-21T00:49:38;99492.53;;;10.62;65.05
50636;BME280;36598;46.054;11.130;2023-03-21T00:52:03;99496.56;;;10.54;65.14
50636;BME280;36598;46.054;11.130;2023-03-21T00:54:31;99497.34;;;10.55;65.22
50636;BME280;36598;46.054;11.130;2023-03-21T00:56:56;99480.78;;;10.47;65.37
50636;BME280;36598;46.054;11.130;2023-03-21T00:59:21;99497.66;;;10.64;64.27
50636;BME280;36598;46.054;11.130;2023-03-21T01:01:47;99493.84;;;10.47;64.97
50636;BME280;36598;46.054;11.130;2023-03-21T01:04:13;99488.72;;;10.45;65.01
50636;BME280;36598;46.054;11.130;2023-03-21T01:06:41;99477.69;;;10.38;65.44
50636;BME280;36598;46.054;11.130;2023-03-21T01:09:08;99477.56;;;10.56;64.72
50636;BME280;36598;46.054;11.130;2023-03-21T01:11:35;99480.06;;;10.36;65.25
50636;BME280;36598;46.054;11.130;2023-03-21T01:14:00;99478.31;;;10.01;66.22
50636;BME280;36598;46.054;11.130;2023-03-21T01:16:26;99480.94;;;10.19;65.27
50636;BME280;36598;46.054;11.130;2023-03-21T01:18:51;99474.84;;;10.49;65.17
50636;BME280;36598;46.054;11.130;2023-03-21T01:21:16;99472.97;;;10.35;65.08
50636;BME280;36598;46.054;11.130;2023-03-21T01:23:42;99464.69;;;10.32;65.07
50636;BME280;36598;46.054;11.130;2023-03-21T01:26:08;99471.53;;;10.13;65.81
50636;BME280;36598;46.054;11.130;2023-03-21T01:28:34;99470.75;;;10.12;66.10
50636;BME280;36598;46.054;11.130;2023-03-21T01:31:00;99469.22;;;10.00;66.99
50636;BME280;36598;46.054;11.130;2023-03-21T01:33:27;99472.22;;;10.31;65.61
50636;BME280;36598;46.054;11.130;2023-03-21T01:35:52;99465.53;;;10.21;65.25
50636;BME280;36598;46.054;11.130;2023-03-21T01:38:17;99463.56;;;10.22;65.44
50636;BME280;36598;46.054;11.130;2023-03-21T01:40:46;99462.53;;;9.98;66.46
50636;BME280;36598;46.054;11.130;2023-03-21T01:43:20;99465.03;;;9.71;67.22
50636;BME280;36598;46.054;11.130;2023-03-21T01:48:30;99467.53;;;10.17;66.27
50636;BME280;36598;46.054;11.130;2023-03-21T01:50:56;99460.81;;;10.18;65.69
50636;BME280;36598;46.054;11.130;2023-03-21T01:53:23;99455.19;;;9.70;67.99
50636;BME280;36598;46.054;11.130;2023-03-21T01:55:54;99451.13;;;9.89;67.41
50636;BME280;36598;46.054;11.130;2023-03-21T01:58:20;99441.22;;;9.95;66.76
50636;BME280;36598;46.054;11.130;2023-03-21T02:00:46;99439.28;;;9.88;66.64
50636;BME280;36598;46.054;11.130;2023-03-21T02:03:14;99445.47;;;10.10;66.34
50636;BME280;36598;46.054;11.130;2023-03-21T02:08:14;99434.06;;;10.01;66.36
50636;BME280;36598;46.054;11.130;2023-03-21T02:10:41;99446.00;;;9.87;66.92
50636;BME280;36598;46.054;11.130;2023-03-21T02:13:07;99438.31;;;10.16;66.47
50636;BME280;36598;46.054;11.130;2023-03-21T02:15:34;99441.41;;;9.59;68.29
50636;BME280;36598;46.054;11.130;2023-03-21T02:23:00;99430.34;;;9.66;67.67
50636;BME280;36598;46.054;11.130;2023-03-21T02:28:08;99419.94;;;9.88;67.18
50636;BME280;36598;46.054;11.130;2023-03-21T02:31:02;99413.91;;;10.04;66.17
50636;BME280;36598;46.054;11.130;2023-03-21T02:36:21;99420.34;;;9.90;67.12
50636;BME280;36598;46.054;11.130;2023-03-21T02:44:18;99413.03;;;9.55;67.99
50636;BME280;36598;46.054;11.130;2023-03-21T02:52:20;99411.09;;;9.45;68.91
50636;BME280;36598;46.054;11.130;2023-03-21T02:54:46;99410.97;;;9.70;67.86
50636;BME280;36598;46.054;11.130;2023-03-21T02:57:13;99407.09;;;9.60;67.61
50636;BME280;36598;46.054;11.130;2023-03-21T02:59:41;99403.13;;;9.65;67.99
50636;BME280;36598;46.054;11.130;2023-03-21T03:02:06;99403.13;;;9.61;67.62
50636;BME280;36598;46.054;11.130;2023-03-21T03:04:32;99409.88;;;9.57;67.18
50636;BME280;36598;46.054;11.130;2023-03-21T03:11:53;99411.41;;;9.61;67.11
50636;BME280;36598;46.054;11.130;2023-03-21T03:17:02;99415.44;;;9.46;68.43
50636;BME280;36598;46.054;11.130;2023-03-21T03:19:43;99415.41;;;9.49;67.53
50636;BME280;36598;46.054;11.130;2023-03-21T03:22:12;99420.56;;;9.47;67.46
50636;BME280;36598;46.054;11.130;2023-03-21T03:27:24;99414.72;;;9.27;67.72
50636;BME280;36598;46.054;11.130;2023-03-21T03:29:53;99424.53;;;9.43;67.49
50636;BME280;36598;46.054;11.130;2023-03-21T03:32:23;99421.38;;;9.41;67.69
50636;BME280;36598;46.054;11.130;2023-03-21T03:34:52;99422.94;;;9.42;67.72
50636;BME280;36598;46.054;11.130;2023-03-21T03:37:20;99420.91;;;9.57;67.71
50636;BME280;36598;46.054;11.130;2023-03-21T03:39:52;99420.31;;;9.17;68.81
50636;BME280;36598;46.054;11.130;2023-03-21T03:42:26;99433.03;;;8.50;71.09
50636;BME280;36598;46.054;11.130;2023-03-21T03:44:53;99422.38;;;8.52;71.79
50636;BME280;36598;46.054;11.130;2023-03-21T03:47:29;99419.59;;;8.84;70.35
50636;BME280;36598;46.054;11.130;2023-03-21T03:52:42;99430.59;;;8.98;69.53
50636;BME280;36598;46.054;11.130;2023-03-21T03:55:09;99429.44;;;8.96;69.64
50636;BME280;36598;46.054;11.130;2023-03-21T03:57:35;99425.91;;;8.92;70.14
50636;BME280;36598;46.054;11.130;2023-03-21T04:00:01;99424.28;;;9.12;69.36
50636;BME280;36598;46.054;11.130;2023-03-21T04:02:26;99424.69;;;8.93;69.84
50636;BME280;36598;46.054;11.130;2023-03-21T04:04:51;99430.59;;;8.95;69.74
50636;BME280;36598;46.054;11.130;2023-03-21T04:07:18;99437.66;;;9.03;68.99
50636;BME280;36598;46.054;11.130;2023-03-21T04:09:43;99432.94;;;9.07;68.92
50636;BME280;36598;46.054;11.130;2023-03-21T04:12:09;99441.63;;;8.98;68.94
50636;BME280;36598;46.054;11.130;2023-03-21T04:14:35;99436.94;;;8.92;69.33
50636;BME280;36598;46.054;11.130;2023-03-21T04:17:00;99444.00;;;8.96;68.75
50636;BME280;36598;46.054;11.130;2023-03-21T04:19:25;99440.78;;;9.23;68.54
50636;BME280;36598;46.054;11.130;2023-03-21T04:21:51;99444.38;;;9.09;68.71
50636;BME280;36598;46.054;11.130;2023-03-21T04:24:17;99444.03;;;8.93;69.01
50636;BME280;36598;46.054;11.130;2023-03-21T04:26:42;99446.41;;;8.91;69.09
50636;BME280;36598;46.054;11.130;2023-03-21T04:29:07;99442.88;;;8.83;69.49
50636;BME280;36598;46.054;11.130;2023-03-21T04:31:33;99440.44;;;9.10;69.01
50636;BME280;36598;46.054;11.130;2023-03-21T04:34:00;99444.81;;;8.97;69.61
50636;BME280;36598;46.054;11.130;2023-03-21T04:36:26;99437.31;;;8.90;68.83
50636;BME280;36598;46.054;11.130;2023-03-21T04:38:55;99445.59;;;8.90;69.27
50636;BME280;36598;46.054;11.130;2023-03-21T04:41:25;99438.91;;;8.88;69.29
50636;BME280;36598;46.054;11.130;2023-03-21T04:43:50;99440.06;;;8.94;69.41
50636;BME280;36598;46.054;11.130;2023-03-21T04:46:16;99444.78;;;9.00;69.40
50636;BME280;36598;46.054;11.130;2023-03-21T04:48:41;99438.13;;;8.91;69.58
50636;BME280;36598;46.054;11.130;2023-03-21T04:51:06;99441.63;;;8.95;69.48
50636;BME280;36598;46.054;11.130;2023-03-21T04:53:32;99446.41;;;8.76;69.17
50636;BME280;36598;46.054;11.130;2023-03-21T04:55:57;99439.69;;;8.92;69.73
50636;BME280;36598;46.054;11.130;2023-03-21T04:58:22;99436.47;;;9.08;68.88
50636;BME280;36598;46.054;11.130;2023-03-21T05:00:48;99442.88;;;8.87;69.87
50636;BME280;36598;46.054;11.130;2023-03-21T05:03:16;99440.88;;;8.91;68.56
50636;BME280;36598;46.054;11.130;2023-03-21T05:05:44;99436.50;;;9.00;68.64
50636;BME280;36598;46.054;11.130;2023-03-21T05:08:09;99437.72;;;8.24;72.18
50636;BME280;36598;46.054;11.130;2023-03-21T05:10:34;99437.75;;;8.60;70.35
50636;BME280;36598;46.054;11.130;2023-03-21T05:13:00;99435.75;;;8.11;72.63
50636;BME280;36598;46.054;11.130;2023-03-21T05:15:25;99432.63;;;8.34;71.86
50636;BME280;36598;46.054;11.130;2023-03-21T05:17:50;99444.47;;;8.38;71.47
50636;BME280;36598;46.054;11.130;2023-03-21T05:20:16;99445.13;;;7.77;73.64
50636;BME280;36598;46.054;11.130;2023-03-21T05:22:42;99451.81;;;7.69;74.78
50636;BME280;36598;46.054;11.130;2023-03-21T05:25:10;99455.38;;;7.88;73.95
50636;BME280;36598;46.054;11.130;2023-03-21T05:27:36;99448.38;;;8.29;73.01
50636;BME280;36598;46.054;11.130;2023-03-21T05:32:29;99446.81;;;8.61;70.30
50636;BME280;36598;46.054;11.130;2023-03-21T05:34:55;99446.41;;;8.76;70.06
50636;BME280;36598;46.054;11.130;2023-03-21T05:37:20;99449.16;;;8.73;70.35
50636;BME280;36598;46.054;11.130;2023-03-21T05:39:46;99451.16;;;8.62;70.20
50636;BME280;36598;46.054;11.130;2023-03-21T05:42:11;99451.94;;;8.69;69.73
50636;BME280;36598;46.054;11.130;2023-03-21T05:44:36;99449.94;;;8.73;69.26
50636;BME280;36598;46.054;11.130;2023-03-21T05:47:04;99459.41;;;8.69;69.92
50636;BME280;36598;46.054;11.130;2023-03-21T05:49:30;99468.84;;;8.86;69.40
50636;BME280;36598;46.054;11.130;2023-03-21T05:51:55;99470.44;;;8.90;69.69
50636;BME280;36598;46.054;11.130;2023-03-21T05:54:21;99466.88;;;9.00;68.62
50636;BME280;36598;46.054;11.130;2023-03-21T05:56:46;99469.59;;;9.11;68.57
50636;BME280;36598;46.054;11.130;2023-03-21T05:59:11;99468.03;;;9.10;68.08
50636;BME280;36598;46.054;11.130;2023-03-21T06:01:37;99467.31;;;8.74;69.47
50636;BME280;36598;46.054;11.130;2023-03-21T06:04:02;99459.00;;;8.85;69.21
50636;BME280;36598;46.054;11.130;2023-03-21T06:06:27;99464.91;;;9.08;68.63
50636;BME280;36598;46.054;11.130;2023-03-21T06:08:52;99462.91;;;9.05;68.00
50636;BME280;36598;46.054;11.130;2023-03-21T06:11:19;99460.88;;;9.31;67.01
50636;BME280;36598;46.054;11.130;2023-03-21T06:13:47;99464.75;;;9.51;66.43
50636;BME280;36598;46.054;11.130;2023-03-21T06:16:12;99469.81;;;9.63;66.01
50636;BME280;36598;46.054;11.130;2023-03-21T06:18:37;99471.00;;;9.66;65.87
50636;BME280;36598;46.054;11.130;2023-03-21T06:21:03;99471.78;;;9.59;65.50
50636;BME280;36598;46.054;11.130;2023-03-21T06:23:28;99476.44;;;9.84;65.09
50636;BME280;36598;46.054;11.130;2023-03-21T06:25:54;99477.94;;;9.99;63.70
50636;BME280;36598;46.054;11.130;2023-03-21T06:28:19;99479.53;;;9.93;64.00
50636;BME280;36598;46.054;11.130;2023-03-21T06:30:44;99487.53;;;9.76;64.34
50636;BME280;36598;46.054;11.130;2023-03-21T06:33:10;99474.88;;;9.75;64.35
50636;BME280;36598;46.054;11.130;2023-03-21T06:35:35;99476.94;;;9.64;65.71
50636;BME280;36598;46.054;11.130;2023-03-21T06:38:00;99477.53;;;9.97;64.57
50636;BME280;36598;46.054;11.130;2023-03-21T06:40:26;99473.88;;;10.14;63.65
50636;BME280;36598;46.054;11.130;2023-03-21T06:42:51;99479.34;;;10.32;63.31
50636;BME280;36598;46.054;11.130;2023-03-21T06:45:16;99477.41;;;10.74;62.35
50636;BME280;36598;46.054;11.130;2023-03-21T06:47:42;99477.59;;;10.49;62.88
50636;BME280;36598;46.054;11.130;2023-03-21T06:50:07;99477.72;;;10.35;63.01
50636;BME280;36598;46.054;11.130;2023-03-21T06:52:33;99487.72;;;12.64;57.77
50636;BME280;36598;46.054;11.130;2023-03-21T06:54:58;99467.91;;;16.92;45.60
50636;BME280;36598;46.054;11.130;2023-03-21T06:57:24;99466.44;;;18.50;41.27
50636;BME280;36598;46.054;11.130;2023-03-21T06:59:49;99472.78;;;21.31;35.48
50636;BME280;36598;46.054;11.130;2023-03-21T07:02:14;99465.75;;;23.35;31.95
50636;BME280;36598;46.054;11.130;2023-03-21T07:04:39;99468.66;;;24.24;30.35
50636;BME280;36598;46.054;11.130;2023-03-21T07:07:05;99463.19;;;24.47;29.42
50636;BME280;36598;46.054;11.130;2023-03-21T07:09:30;99468.50;;;24.77;29.08
50636;BME280;36598;46.054;11.130;2023-03-21T07:11:55;99472.22;;;25.70;27.35
50636;BME280;36598;46.054;11.130;2023-03-21T07:14:21;99470.72;;;26.14;26.82
50636;BME280;36598;46.054;11.130;2023-03-21T07:16:47;99459.69;;;27.19;25.26
50636;BME280;36598;46.054;11.130;2023-03-21T07:19:13;99462.53;;;27.19;25.35
50636;BME280;36598;46.054;11.130;2023-03-21T07:21:39;99457.97;;;29.22;23.07
50636;BME280;36598;46.054;11.130;2023-03-21T07:24:05;99453.59;;;29.77;22.19
50636;BME280;36598;46.054;11.130;2023-03-21T07:26:30;99467.13;;;29.90;21.29
50636;BME280;36598;46.054;11.130;2023-03-21T07:28:55;99464.00;;;30.52;21.09
50636;BME280;36598;46.054;11.130;2023-03-21T07:31:21;99455.81;;;29.65;21.53
50636;BME280;36598;46.054;11.130;2023-03-21T07:33:50;99457.50;;;30.38;20.89
50636;BME280;36598;46.054;11.130;2023-03-21T15:56:22;98878.84;;;20.02;35.10
50636;BME280;36598;46.054;11.130;2023-03-21T15:58:50;98880.00;;;20.11;34.88
50636;BME280;36598;46.054;11.130;2023-03-21T16:01:16;98886.06;;;19.89;35.16
50636;BME280;36598;46.054;11.130;2023-03-21T16:03:46;98887.91;;;19.77;35.10
50636;BME280;36598;46.054;11.130;2023-03-21T16:09:12;98887.13;;;19.91;35.45
50636;BME280;36598;46.054;11.130;2023-03-21T16:11:36;98885.66;;;19.51;35.95
50636;BME280;36598;46.054;11.130;2023-03-21T16:14:02;98889.50;;;19.39;36.11
50636;BME280;36598;46.054;11.130;2023-03-21T16:16:27;98895.88;;;19.10;36.84
50636;BME280;36598;46.054;11.130;2023-03-21T16:18:54;98892.31;;;19.24;36.87
50636;BME280;36598;46.054;11.130;2023-03-21T16:21:21;98895.97;;;19.31;37.08
50636;BME280;36598;46.054;11.130;2023-03-21T16:23:47;98902.66;;;19.33;37.11
50636;BME280;36598;46.054;11.130;2023-03-21T16:26:13;98897.47;;;19.41;37.00
50636;BME280;36598;46.054;11.130;2023-03-21T16:28:40;98904.81;;;19.38;37.26
50636;BME280;36598;46.054;11.130;2023-03-21T16:31:08;98912.31;;;19.17;37.42
50636;BME280;36598;46.054;11.130;2023-03-21T16:33:33;98912.22;;;18.88;38.02
50636;BME280;36598;46.054;11.130;2023-03-21T16:35:59;98915.16;;;18.69;38.45
50636;BME280;36598;46.054;11.130;2023-03-21T16:38:24;98914.31;;;18.78;38.61
50636;BME280;36598;46.054;11.130;2023-03-21T16:40:50;98912.69;;;18.62;38.99
50636;BME280;36598;46.054;11.130;2023-03-21T16:43:15;98920.25;;;18.47;39.12
50636;BME280;36598;46.054;11.130;2023-03-21T16:45:40;98925.97;;;18.19;39.72
50636;BME280;36598;46.054;11.130;2023-03-21T16:48:06;98922.31;;;18.04;40.26
50636;BME280;36598;46.054;11.130;2023-03-21T16:50:38;98925.97;;;18.19;40.12
50636;BME280;36598;46.054;11.130;2023-03-21T16:53:05;98924.78;;;18.11;40.35
50636;BME280;36598;46.054;11.130;2023-03-21T16:55:30;98933.81;;;18.06;40.25
50636;BME280;36598;46.054;11.130;2023-03-21T16:57:58;98930.00;;;17.85;41.01
50636;BME280;36598;46.054;11.130;2023-03-21T17:00:25;98926.03;;;18.10;40.76
50636;BME280;36598;46.054;11.130;2023-03-21T17:02:51;98927.56;;;18.11;40.81
50636;BME280;36598;46.054;11.130;2023-03-21T17:05:23;98928.06;;;18.10;40.35
50636;BME280;36598;46.054;11.130;2023-03-21T17:07:52;98940.53;;;17.99;40.79
50636;BME280;36598;46.054;11.130;2023-03-21T17:10:22;98938.34;;;18.04;40.61
50636;BME280;36598;46.054;11.130;2023-03-21T17:12:49;98935.72;;;18.00;40.35
50636;BME280;36598;46.054;11.130;2023-03-21T17:15:15;98930.13;;;18.00;41.29
50636;BME280;36598;46.054;11.130;2023-03-21T17:17:40;98933.72;;;17.91;41.11
50636;BME280;36598;46.054;11.130;2023-03-21T17:22:40;98933.44;;;17.71;40.75
50636;BME280;36598;46.054;11.130;2023-03-21T17:25:06;98942.16;;;17.55;40.94
50636;BME280;36598;46.054;11.130;2023-03-21T17:27:31;98944.78;;;17.58;41.05
50636;BME280;36598;46.054;11.130;2023-03-21T17:29:56;98950.69;;;17.69;40.98
50636;BME280;36598;46.054;11.130;2023-03-21T17:32:22;98957.72;;;17.74;41.10
50636;BME280;36598;46.054;11.130;2023-03-21T17:34:47;98955.50;;;17.60;42.36
50636;BME280;36598;46.054;11.130;2023-03-21T17:37:17;98962.03;;;17.66;41.74
50636;BME280;36598;46.054;11.130;2023-03-21T17:39:42;98959.25;;;17.66;43.31
50636;BME280;36598;46.054;11.130;2023-03-21T17:42:12;98954.72;;;17.68;43.00
50636;BME280;36598;46.054;11.130;2023-03-21T17:44:39;98954.28;;;17.61;43.08
50636;BME280;36598;46.054;11.130;2023-03-21T17:47:05;98959.69;;;17.64;41.96
50636;BME280;36598;46.054;11.130;2023-03-21T17:49:30;98962.34;;;17.68;41.35
50636;BME280;36598;46.054;11.130;2023-03-21T17:51:55;98958.31;;;17.69;41.18
50636;BME280;36598;46.054;11.130;2023-03-21T17:54:20;98966.69;;;17.60;41.57
50636;BME280;36598;46.054;11.130;2023-03-21T17:56:46;98968.28;;;17.33;41.81
50636;BME280;36598;46.054;11.130;2023-03-21T17:59:12;98967.50;;;17.23;42.32
50636;BME280;36598;46.054;11.130;2023-03-21T18:01:38;98963.78;;;17.17;42.20
50636;BME280;36598;46.054;11.130;2023-03-21T18:04:03;98969.22;;;17.30;43.09
50636;BME280;36598;46.054;11.130;2023-03-21T18:06:29;98976.53;;;17.09;42.88
50636;BME280;36598;46.054;11.130;2023-03-21T18:08:55;98977.09;;;16.95;42.57
50636;BME280;36598;46.054;11.130;2023-03-21T18:11:21;98986.38;;;16.73;43.75
50636;BME280;36598;46.054;11.130;2023-03-21T18:13:47;98992.16;;;16.79;43.75
50636;BME280;36598;46.054;11.130;2023-03-21T18:16:21;98999.94;;;16.93;43.91
50636;BME280;36598;46.054;11.130;2023-03-21T18:18:47;99004.38;;;16.72;43.53
50636;BME280;36598;46.054;11.130;2023-03-21T18:21:13;98998.88;;;16.60;44.37
50636;BME280;36598;46.054;11.130;2023-03-21T18:23:39;99003.78;;;16.77;43.62
50636;BME280;36598;46.054;11.130;2023-03-21T18:26:05;99009.59;;;16.61;43.91
50636;BME280;36598;46.054;11.130;2023-03-21T18:28:32;99006.50;;;16.59;43.48
50636;BME280;36598;46.054;11.130;2023-03-21T18:30:58;99009.63;;;16.70;44.62
50636;BME280;36598;46.054;11.130;2023-03-21T18:33:25;99009.34;;;16.77;43.74
50636;BME280;36598;46.054;11.130;2023-03-21T18:35:51;99011.16;;;16.62;43.96
50636;BME280;36598;46.054;11.130;2023-03-21T18:38:16;99011.28;;;16.49;44.82
50636;BME280;36598;46.054;11.130;2023-03-21T18:40:41;99016.75;;;16.31;45.71
50636;BME280;36598;46.054;11.130;2023-03-21T18:43:07;99015.97;;;16.31;45.15
50636;BME280;36598;46.054;11.130;2023-03-21T18:45:32;99012.91;;;16.38;46.32
50636;BME280;36598;46.054;11.130;2023-03-21T18:47:58;99010.56;;;16.05;45.44
50636;BME280;36598;46.054;11.130;2023-03-21T18:50:23;99011.91;;;16.22;45.07
50636;BME280;36598;46.054;11.130;2023-03-21T18:52:49;99016.75;;;16.31;44.22
50636;BME280;36598;46.054;11.130;2023-03-21T18:55:14;99013.53;;;16.33;44.02
50636;BME280;36598;46.054;11.130;2023-03-21T18:57:40;99017.28;;;16.48;44.07
50636;BME280;36598;46.054;11.130;2023-03-21T19:00:13;99028.00;;;16.40;44.48
50636;BME280;36598;46.054;11.130;2023-03-21T19:02:44;99033.41;;;16.44;44.97
50636;BME280;36598;46.054;11.130;2023-03-21T19:05:10;99037.44;;;16.43;45.62
50636;BME280;36598;46.054;11.130;2023-03-21T19:07:35;99039.63;;;16.48;45.58
50636;BME280;36598;46.054;11.130;2023-03-21T19:10:01;99040.19;;;16.34;45.76
50636;BME280;36598;46.054;11.130;2023-03-21T19:12:26;99041.53;;;16.20;45.06
50636;BME280;36598;46.054;11.130;2023-03-21T19:14:52;99043.84;;;16.21;46.85
50636;BME280;36598;46.054;11.130;2023-03-21T19:17:17;99041.81;;;15.91;47.32
50636;BME280;36598;46.054;11.130;2023-03-21T19:19:43;99044.91;;;15.93;46.51
50636;BME280;36598;46.054;11.130;2023-03-21T19:22:08;99042.22;;;16.02;45.45
50636;BME280;36598;46.054;11.130;2023-03-21T19:24:34;99043.81;;;15.90;46.65
50636;BME280;36598;46.054;11.130;2023-03-21T19:27:00;99045.91;;;15.99;45.50
50636;BME280;36598;46.054;11.130;2023-03-21T19:29:25;99043.41;;;16.01;46.06
50636;BME280;36598;46.054;11.130;2023-03-21T19:31:50;99044.13;;;16.14;45.51
50636;BME280;36598;46.054;11.130;2023-03-21T19:34:16;99045.31;;;16.04;46.64
50636;BME280;36598;46.054;11.130;2023-03-21T19:36:42;99051.78;;;16.01;46.46
50636;BME280;36598;46.054;11.130;2023-03-21T19:39:08;99058.94;;;16.02;46.55
50636;BME280;36598;46.054;11.130;2023-03-21T19:41:33;99058.41;;;16.16;46.26
50636;BME280;36598;46.054;11.130;2023-03-21T19:43:59;99059.13;;;16.08;46.65
50636;BME280;36598;46.054;11.130;2023-03-21T19:46:24;99062.06;;;16.04;46.98
50636;BME280;36598;46.054;11.130;2023-03-21T19:48:50;99064.38;;;15.84;46.92
50636;BME280;36598;46.054;11.130;2023-03-21T19:51:18;99057.50;;;15.41;47.72
50636;BME280;36598;46.054;11.130;2023-03-21T19:53:43;99065.03;;;15.53;46.97
50636;BME280;36598;46.054;11.130;2023-03-21T19:56:08;99061.41;;;15.78;47.58
50636;BME280;36598;46.054;11.130;2023-03-21T19:58:33;99072.47;;;15.34;48.18
50636;BME280;36598;46.054;11.130;2023-03-21T20:00:59;99065.22;;;15.59;48.22
50636;BME280;36598;46.054;11.130;2023-03-21T20:03:24;99064.38;;;15.49;47.83
50636;BME280;36598;46.054;11.130;2023-03-21T20:05:50;99070.97;;;15.55;48.13
50636;BME280;36598;46.054;11.130;2023-03-21T20:08:15;99069.81;;;15.65;47.85
50636;BME280;36598;46.054;11.130;2023-03-21T20:10:44;99074.97;;;15.89;46.87
50636;BME280;36598;46.054;11.130;2023-03-21T20:13:09;99075.41;;;15.87;46.72
50636;BME280;36598;46.054;11.130;2023-03-21T20:15:35;99077.75;;;15.54;48.17
50636;BME280;36598;46.054;11.130;2023-03-21T20:18:00;99080.16;;;15.77;47.20
50636;BME280;36598;46.054;11.130;2023-03-21T20:20:26;99080.41;;;15.70;47.90
50636;BME280;36598;46.054;11.130;2023-03-21T20:22:51;99095.28;;;15.55;47.65
50636;BME280;36598;46.054;11.130;2023-03-21T20:25:22;99094.50;;;15.41;48.56
50636;BME280;36598;46.054;11.130;2023-03-21T20:27:47;99090.47;;;15.68;47.72
50636;BME280;36598;46.054;11.130;2023-03-21T20:30:14;99093.69;;;15.53;48.02
50636;BME280;36598;46.054;11.130;2023-03-21T20:32:40;99101.81;;;15.26;48.65
50636;BME280;36598;46.054;11.130;2023-03-21T20:35:07;99107.53;;;14.84;49.81
50636;BME280;36598;46.054;11.130;2023-03-21T20:37:33;99101.81;;;15.26;49.59
50636;BME280;36598;46.054;11.130;2023-03-21T20:39:58;99106.78;;;15.44;49.02
50636;BME280;36598;46.054;11.130;2023-03-21T20:42:24;99109.75;;;15.62;48.71
50636;BME280;36598;46.054;11.130;2023-03-21T20:44:49;99109.56;;;15.44;49.36
50636;BME280;36598;46.054;11.130;2023-03-21T20:47:16;99106.91;;;15.40;49.36
50636;BME280;36598;46.054;11.130;2023-03-21T20:49:41;99113.09;;;15.57;48.35
50636;BME280;36598;46.054;11.130;2023-03-21T20:52:06;99110.25;;;15.35;49.46
50636;BME280;36598;46.054;11.130;2023-03-21T20:54:32;99112.09;;;15.16;50.01
50636;BME280;36598;46.054;11.130;2023-03-21T20:56:59;99111.28;;;15.28;49.31
50636;BME280;36598;46.054;11.130;2023-03-21T20:59:24;99111.41;;;15.25;49.65
50636;BME280;36598;46.054;11.130;2023-03-21T21:01:52;99118.09;;;15.27;49.88
50636;BME280;36598;46.054;11.130;2023-03-21T21:04:18;99114.34;;;14.70;50.37
50636;BME280;36598;46.054;11.130;2023-03-21T21:06:47;99120.00;;;14.80;50.01
50636;BME280;36598;46.054;11.130;2023-03-21T21:09:12;99113.09;;;14.84;49.87
50636;BME280;36598;46.054;11.130;2023-03-21T21:11:38;99117.53;;;15.07;49.94
50636;BME280;36598;46.054;11.130;2023-03-21T21:14:03;99112.28;;;15.35;48.76
50636;BME280;36598;46.054;11.130;2023-03-21T21:16:29;99120.28;;;15.33;49.12
50636;BME280;36598;46.054;11.130;2023-03-21T21:18:54;99117.41;;;15.23;49.53
50636;BME280;36598;46.054;11.130;2023-03-21T21:21:20;99116.31;;;15.34;49.28
50636;BME280;36598;46.054;11.130;2023-03-21T21:23:45;99123.44;;;15.35;49.31
50636;BME280;36598;46.054;11.130;2023-03-21T21:26:11;99117.31;;;15.14;50.21
50636;BME280;36598;46.054;11.130;2023-03-21T21:28:36;99127.38;;;14.86;50.80
50636;BME280;36598;46.054;11.130;2023-03-21T21:31:08;99129.38;;;14.86;50.57
50636;BME280;36598;46.054;11.130;2023-03-21T21:33:34;99124.59;;;14.61;51.35
50636;BME280;36598;46.054;11.130;2023-03-21T21:36:00;99130.16;;;14.73;51.28
50636;BME280;36598;46.054;11.130;2023-03-21T21:38:25;99141.63;;;14.88;50.48
50636;BME280;36598;46.054;11.130;2023-03-21T21:40:51;99140.06;;;14.87;51.14
50636;BME280;36598;46.054;11.130;2023-03-21T21:43:17;99145.75;;;14.84;50.73
50636;BME280;36598;46.054;11.130;2023-03-21T21:45:47;99138.81;;;14.50;51.20
50636;BME280;36598;46.054;11.130;2023-03-21T21:48:12;99137.00;;;14.43;50.97
50636;BME280;36598;46.054;11.130;2023-03-21T21:50:38;99139.94;;;14.65;50.17
50636;BME280;36598;46.054;11.130;2023-03-21T21:53:05;99139.41;;;14.70;50.96
50636;BME280;36598;46.054;11.130;2023-03-21T21:55:33;99144.75;;;14.77;50.87